sensor_id;sensor_type;location;lat;lon;timestamp;pressure;altitude;pressure_sealevel;temperature;humidity
2875;BME280;1445;52.600;13.328;2023-02-26T00:01:14;100650.00;;;-0.50;100.00
2875;BME280;1445;52.600;13.328;2023-02-26T00:03:40;100647.53;;;-0.51;100.00
2875;BME280;1445;52.600;13.328;2023-02-26T00:06:06;100649.19;;;-0.50;100.00
2875;BME280;1445;52.600;13.328;2023-02-26T00:08:32;100658.97;;;-0.49;100.00
2875;BME280;1445;52.600;13.328;2023-02-26T00:10:57;100656.84;;;-0.47;100.00
2875;BME280;1445;52.600;13.328;2023-02-26T00:13:26;100662.97;;;-0.52;100.00
2875;BME280;1445;52.600;13.328;2023-02-26T00:15:55;100657.63;;;-0.58;100.00
2875;BME280;1445;52.600;13.328;2023-02-26T00:18:22;100658.91;;;-0.61;100.00
2875;BME280;1445;52.600;13.328;2023-02-26T00:20:48;100665.84;;;-0.65;100.00
2875;BME280;1445;52.600;13.328;2023-02-26T00:23:14;100674.34;;;-0.61;100.00
2875;BME280;1445;52.600;13.328;2023-02-26T00:25:40;100678.09;;;-0.62;100.00
2875;BME280;1445;52.600;13.328;2023-02-26T00:28:07;100680.84;;;-0.51;100.00
2875;BME280;1445;52.600;13.328;2023-02-26T00:30:33;100688.19;;;-0.39;100.00
2875;BME280;1445;52.600;13.328;2023-02-26T00:32:58;100687.44;;;-0.46;100.00
2875;BME280;1445;52.600;13.328;2023-02-26T00:35:24;100697.00;;;-0.44;100.00
2875;BME280;1445;52.600;13.328;2023-02-26T00:38:10;100704.59;;;-0.34;100.00
2875;BME280;1445;52.600;13.328;2023-02-26T00:40:44;100707.50;;;-0.36;100.00
2875;BME280;1445;52.600;13.328;2023-02-26T00:43:22;100713.63;;;-0.40;100.00
2875;BME280;1445;52.600;13.328;2023-02-26T00:48:47;100716.34;;;-0.29;100.00
2875;BME280;1445;52.600;13.328;2023-02-26T00:56:29;100717.56;;;-0.25;100.00
2875;BME280;1445;52.600;13.328;2023-02-26T00:58:55;100719.31;;;-0.30;100.00
2875;BME280;1445;52.600;13.328;2023-02-26T01:01:20;100720.66;;;-0.21;100.00
2875;BME280;1445;52.600;13.328;2023-02-26T01:03:46;100717.56;;;-0.25;100.00
2875;BME280;1445;52.600;13.328;2023-02-26T01:06:18;100725.09;;;-0.27;100.00
2875;BME280;1445;52.600;13.328;2023-02-26T01:09:11;100728.53;;;-0.19;100.00
2875;BME280;1445;52.600;13.328;2023-02-26T01:11:38;100727.19;;;-0.29;100.00
2875;BME280;1445;52.600;13.328;2023-02-26T01:14:04;100729.41;;;-0.37;100.00
2875;BME280;1445;52.600;13.328;2023-02-26T01:16:33;100725.91;;;-0.26;100.00
2875;BME280;1445;52.600;13.328;2023-02-26T01:19:06;100731.47;;;-0.21;100.00
2875;BME280;1445;52.600;13.328;2023-02-26T01:21:40;100735.38;;;-0.17;100.00
2875;BME280;1445;52.600;13.328;2023-02-26T01:24:09;100737.13;;;-0.22;100.00
2875;BME280;1445;52.600;13.328;2023-02-26T01:26:37;100731.78;;;-0.29;100.00
2875;BME280;1445;52.600;13.328;2023-02-26T01:29:03;100737.13;;;-0.22;100.00
2875;BME280;1445;52.600;13.328;2023-02-26T01:31:49;100734.28;;;-0.28;100.00
2875;BME280;1445;52.600;13.328;2023-02-26T01:37:07;100742.81;;;-0.12;100.00
2875;BME280;1445;52.600;13.328;2023-02-26T01:42:26;100744.81;;;-0.08;100.00
2875;BME280;1445;52.600;13.328;2023-02-26T01:45:10;100744.25;;;-0.10;100.00
2875;BME280;1445;52.600;13.328;2023-02-26T01:50:18;100745.75;;;-0.14;100.00
2875;BME280;1445;52.600;13.328;2023-02-26T01:55:14;100744.09;;;-0.15;100.00
2875;BME280;1445;52.600;13.328;2023-02-26T01:57:40;100750.69;;;-0.11;100.00
2875;BME280;1445;52.600;13.328;2023-02-26T02:00:06;100741.75;;;-0.11;100.00
2875;BME280;1445;52.600;13.328;2023-02-26T02:02:33;100753.72;;;-0.19;100.00
2875;BME280;1445;52.600;13.328;2023-02-26T02:05:03;100761.75;;;-0.24;100.00
2875;BME280;1445;52.600;13.328;2023-02-26T02:07:30;100760.94;;;-0.13;100.00
2875;BME280;1445;52.600;13.328;2023-02-26T02:09:56;100763.13;;;-0.21;100.00
2875;BME280;1445;52.600;13.328;2023-02-26T02:12:27;100761.50;;;-0.22;100.00
2875;BME280;1445;52.600;13.328;2023-02-26T02:37:24;100792.94;;;-0.21;100.00
2875;BME280;1445;52.600;13.328;2023-02-26T02:39:56;100799.09;;;-0.14;100.00
2875;BME280;1445;52.600;13.328;2023-02-26T02:42:29;100797.25;;;-0.14;100.00
2875;BME280;1445;52.600;13.328;2023-02-26T02:45:04;100799.94;;;-0.14;100.00
2875;BME280;1445;52.600;13.328;2023-02-26T02:47:34;100791.94;;;-0.09;100.00
2875;BME280;1445;52.600;13.328;2023-02-26T02:50:07;100805.50;;;-0.09;100.00
2875;BME280;1445;52.600;13.328;2023-02-26T02:52:44;100810.50;;;-0.24;100.00
2875;BME280;1445;52.600;13.328;2023-02-26T02:55:23;100806.56;;;-0.28;100.00
2875;BME280;1445;52.600;13.328;2023-02-26T02:57:54;100804.47;;;-0.26;100.00
2875;BME280;1445;52.600;13.328;2023-02-26T03:00:26;100811.81;;;-0.45;100.00
2875;BME280;1445;52.600;13.328;2023-02-26T03:05:56;100816.91;;;-0.37;100.00
2875;BME280;1445;52.600;13.328;2023-02-26T03:08:26;100819.16;;;-0.34;100.00
2875;BME280;1445;52.600;13.328;2023-02-26T03:10:52;100822.94;;;-0.35;100.00
2875;BME280;1445;52.600;13.328;2023-02-26T03:13:22;100834.72;;;-0.29;100.00
2875;BME280;1445;52.600;13.328;2023-02-26T03:24:34;100856.63;;;-0.31;100.00
2875;BME280;1445;52.600;13.328;2023-02-26T03:30:01;100864.22;;;-0.21;100.00
2875;BME280;1445;52.600;13.328;2023-02-26T03:35:10;100873.94;;;-0.13;100.00
2875;BME280;1445;52.600;13.328;2023-02-26T03:37:41;100886.66;;;-0.14;100.00
2875;BME280;1445;52.600;13.328;2023-02-26T03:40:15;100881.50;;;-0.22;100.00
2875;BME280;1445;52.600;13.328;2023-02-26T03:42:49;100877.13;;;-0.05;100.00
2875;BME280;1445;52.600;13.328;2023-02-26T03:45:21;100892.59;;;-0.23;100.00
2875;BME280;1445;52.600;13.328;2023-02-26T03:47:50;100897.78;;;-0.22;100.00
2875;BME280;1445;52.600;13.328;2023-02-26T03:50:45;100897.78;;;-0.22;100.00
2875;BME280;1445;52.600;13.328;2023-02-26T03:53:15;100905.38;;;-0.12;100.00
2875;BME280;1445;52.600;13.328;2023-02-26T03:55:52;100900.84;;;-0.18;100.00
2875;BME280;1445;52.600;13.328;2023-02-26T03:58:21;100905.91;;;-0.22;100.00
2875;BME280;1445;52.600;13.328;2023-02-26T04:00:51;100917.84;;;-0.11;100.00
2875;BME280;1445;52.600;13.328;2023-02-26T04:03:26;100918.91;;;-0.12;100.00
2875;BME280;1445;52.600;13.328;2023-02-26T04:05:53;100922.44;;;-0.12;100.00
2875;BME280;1445;52.600;13.328;2023-02-26T04:08:22;100925.16;;;-0.12;100.00
2875;BME280;1445;52.600;13.328;2023-02-26T04:10:57;100931.78;;;-0.08;100.00
2875;BME280;1445;52.600;13.328;2023-02-26T04:13:23;100935.31;;;-0.07;100.00
2875;BME280;1445;52.600;13.328;2023-02-26T04:15:49;100938.88;;;-0.07;100.00
2875;BME280;1445;52.600;13.328;2023-02-26T04:18:14;100941.78;;;-0.08;100.00
2875;BME280;1445;52.600;13.328;2023-02-26T04:20:40;100942.63;;;-0.08;100.00
2875;BME280;1445;52.600;13.328;2023-02-26T04:23:05;100944.75;;;-0.10;100.00
2875;BME280;1445;52.600;13.328;2023-02-26T04:25:31;100938.88;;;-0.07;100.00
2875;BME280;1445;52.600;13.328;2023-02-26T04:27:56;100948.66;;;-0.06;100.00
2875;BME280;1445;52.600;13.328;2023-02-26T04:30:21;100958.16;;;0.04;100.00
2875;BME280;1445;52.600;13.328;2023-02-26T04:32:47;100956.63;;;-0.11;100.00
2875;BME280;1445;52.600;13.328;2023-02-26T04:35:13;100959.31;;;-0.11;100.00
2875;BME280;1445;52.600;13.328;2023-02-26T04:37:38;100958.75;;;-0.13;100.00
2875;BME280;1445;52.600;13.328;2023-02-26T04:40:04;100958.66;;;-0.06;100.00
2875;BME280;1445;52.600;13.328;2023-02-26T04:42:30;100959.41;;;0.01;100.00
2875;BME280;1445;52.600;13.328;2023-02-26T04:44:55;100970.78;;;-0.09;100.00
2875;BME280;1445;52.600;13.328;2023-02-26T04:47:20;100964.16;;;-0.13;100.00
2875;BME280;1445;52.600;13.328;2023-02-26T04:49:46;100980.25;;;-0.18;100.00
2875;BME280;1445;52.600;13.328;2023-02-26T04:52:11;100983.34;;;-0.14;100.00
2875;BME280;1445;52.600;13.328;2023-02-26T04:54:37;100979.97;;;-0.10;100.00
2875;BME280;1445;52.600;13.328;2023-02-26T04:57:03;100973.94;;;-0.12;100.00
2875;BME280;1445;52.600;13.328;2023-02-26T04:59:28;100973.94;;;-0.12;100.00
2875;BME280;1445;52.600;13.328;2023-02-26T05:01:53;100980.34;;;-0.06;100.00
2875;BME280;1445;52.600;13.328;2023-02-26T05:04:19;100984.94;;;-0.07;100.00
2875;BME280;1445;52.600;13.328;2023-02-26T05:06:44;100983.06;;;-0.06;100.00
2875;BME280;1445;52.600;13.328;2023-02-26T05:09:10;100987.97;;;0.04;100.00
2875;BME280;1445;52.600;13.328;2023-02-26T05:11:35;100987.34;;;0.02;100.00
2875;BME280;1445;52.600;13.328;2023-02-26T05:14:01;100998.31;;;0.07;100.00
2875;BME280;1445;52.600;13.328;2023-02-26T05:16:26;101001.66;;;0.09;100.00
2875;BME280;1445;52.600;13.328;2023-02-26T05:18:52;101003.09;;;0.11;100.00
2875;BME280;1445;52.600;13.328;2023-02-26T05:21:17;101004.81;;;0.06;100.00
2875;BME280;1445;52.600;13.328;2023-02-26T05:23:43;101013.63;;;0.01;100.00
2875;BME280;1445;52.600;13.328;2023-02-26T05:26:08;101007.38;;;0.01;100.00
2875;BME280;1445;52.600;13.328;2023-02-26T05:28:34;101006.94;;;0.04;100.00
2875;BME280;1445;52.600;13.328;2023-02-26T05:31:01;101016.72;;;0.05;100.00
2875;BME280;1445;52.600;13.328;2023-02-26T05:33:26;101012.94;;;0.06;100.00
2875;BME280;1445;52.600;13.328;2023-02-26T05:35:52;101019.41;;;0.05;100.00
2875;BME280;1445;52.600;13.328;2023-02-26T05:38:17;101018.75;;;0.09;100.00
2875;BME280;1445;52.600;13.328;2023-02-26T05:40:43;101021.38;;;-0.03;100.00
2875;BME280;1445;52.600;13.328;2023-02-26T05:43:09;101027.44;;;-0.07;100.00
2875;BME280;1445;52.600;13.328;2023-02-26T05:45:34;101027.00;;;-0.04;100.00
2875;BME280;1445;52.600;13.328;2023-02-26T05:48:00;101036.13;;;0.02;100.00
2875;BME280;1445;52.600;13.328;2023-02-26T05:50:25;101034.53;;;-0.06;100.00
2875;BME280;1445;52.600;13.328;2023-02-26T05:52:51;101040.09;;;-0.01;100.00
2875;BME280;1445;52.600;13.328;2023-02-26T05:55:17;101046.91;;;0.08;100.00
2875;BME280;1445;52.600;13.328;2023-02-26T05:57:43;101044.34;;;0.13;100.00
2875;BME280;1445;52.600;13.328;2023-02-26T06:00:09;101061.91;;;0.11;100.00
2875;BME280;1445;52.600;13.328;2023-02-26T06:02:34;101058.81;;;0.07;100.00
2875;BME280;1445;52.600;13.328;2023-02-26T06:04:59;101056.31;;;0.06;100.00
2875;BME280;1445;52.600;13.328;2023-02-26T06:07:25;101061.72;;;0.06;100.00
2875;BME280;1445;52.600;13.328;2023-02-26T06:09:50;101067.75;;;0.08;100.00
2875;BME280;1445;52.600;13.328;2023-02-26T06:12:16;101064.22;;;0.07;100.00
2875;BME280;1445;52.600;13.328;2023-02-26T06:14:41;101072.19;;;0.02;100.00
2875;BME280;1445;52.600;13.328;2023-02-26T06:17:07;101072.63;;;-0.01;100.00
2875;BME280;1445;52.600;13.328;2023-02-26T06:19:32;101081.06;;;0.09;100.00
2875;BME280;1445;52.600;13.328;2023-02-26T06:21:58;101076.88;;;0.13;100.00
2875;BME280;1445;52.600;13.328;2023-02-26T06:24:23;101078.81;;;0.06;100.00
2875;BME280;1445;52.600;13.328;2023-02-26T06:26:49;101084.03;;;0.08;100.00
2875;BME280;1445;52.600;13.328;2023-02-26T06:29:14;101086.88;;;0.13;100.00
2875;BME280;1445;52.600;13.328;2023-02-26T06:31:42;101086.56;;;0.03;100.00
2875;BME280;1445;52.600;13.328;2023-02-26T06:34:08;101095.84;;;0.13;100.00
2875;BME280;1445;52.600;13.328;2023-02-26T06:36:33;101098.94;;;0.17;100.00
2875;BME280;1445;52.600;13.328;2023-02-26T06:38:59;101106.84;;;0.18;100.00
2875;BME280;1445;52.600;13.328;2023-02-26T06:41:24;101102.69;;;0.16;100.00
2875;BME280;1445;52.600;13.328;2023-02-26T06:43:49;101116.25;;;0.16;100.00
2875;BME280;1445;52.600;13.328;2023-02-26T06:46:15;101114.31;;;0.23;100.00
2875;BME280;1445;52.600;13.328;2023-02-26T06:48:40;101119.91;;;0.28;100.00
2875;BME280;1445;52.600;13.328;2023-02-26T06:51:05;101120.03;;;0.33;100.00
2875;BME280;1445;52.600;13.328;2023-02-26T06:53:31;101135.50;;;0.33;100.00
2875;BME280;1445;52.600;13.328;2023-02-26T06:55:56;101134.22;;;0.35;100.00
2875;BME280;1445;52.600;13.328;2023-02-26T06:58:22;101132.59;;;0.28;100.00
2875;BME280;1445;52.600;13.328;2023-02-26T07:00:48;101138.28;;;0.44;100.00
2875;BME280;1445;52.600;13.328;2023-02-26T07:03:16;101140.09;;;0.51;100.00
2875;BME280;1445;52.600;13.328;2023-02-26T07:05:41;101141.22;;;0.43;100.00
2875;BME280;1445;52.600;13.328;2023-02-26T07:08:08;101150.50;;;0.54;100.00
2875;BME280;1445;52.600;13.328;2023-02-26T07:10:35;101160.59;;;0.46;100.00
2875;BME280;1445;52.600;13.328;2023-02-26T07:13:01;101160.16;;;0.50;100.00
2875;BME280;1445;52.600;13.328;2023-02-26T07:15:26;101166.84;;;0.65;100.00
2875;BME280;1445;52.600;13.328;2023-02-26T07:17:52;101173.03;;;0.73;100.00
2875;BME280;1445;52.600;13.328;2023-02-26T07:20:17;101178.25;;;0.74;100.00
2875;BME280;1445;52.600;13.328;2023-02-26T07:22:43;101174.91;;;0.72;100.00
2875;BME280;1445;52.600;13.328;2023-02-26T07:25:10;101177.88;;;0.70;100.00
2875;BME280;1445;52.600;13.328;2023-02-26T07:27:36;101185.19;;;0.88;100.00
2875;BME280;1445;52.600;13.328;2023-02-26T07:30:02;101184.03;;;0.96;100.00
2875;BME280;1445;52.600;13.328;2023-02-26T07:32:28;101187.44;;;1.10;100.00
2875;BME280;1445;52.600;13.328;2023-02-26T07:34:54;101190.53;;;1.13;100.00
2875;BME280;1445;52.600;13.328;2023-02-26T07:37:19;101194.09;;;1.26;100.00
2875;BME280;1445;52.600;13.328;2023-02-26T07:39:44;101193.66;;;1.29;100.00
2875;BME280;1445;52.600;13.328;2023-02-26T07:42:10;101196.25;;;1.24;100.00
2875;BME280;1445;52.600;13.328;2023-02-26T07:44:36;101202.81;;;1.16;100.00
2875;BME280;1445;52.600;13.328;2023-02-26T07:47:01;101200.69;;;1.18;100.00
2875;BME280;1445;52.600;13.328;2023-02-26T07:49:27;101204.97;;;1.26;100.00
2875;BME280;1445;52.600;13.328;2023-02-26T07:51:52;101206.31;;;1.35;100.00
2875;BME280;1445;52.600;13.328;2023-02-26T07:54:18;101218.91;;;1.48;100.00
2875;BME280;1445;52.600;13.328;2023-02-26T07:56:43;101214.31;;;1.30;100.00
2875;BME280;1445;52.600;13.328;2023-02-26T07:59:09;101224.50;;;1.34;100.00
2875;BME280;1445;52.600;13.328;2023-02-26T08:01:35;101228.00;;;1.23;100.00
2875;BME280;1445;52.600;13.328;2023-02-26T08:04:01;101224.06;;;1.19;100.00
2875;BME280;1445;52.600;13.328;2023-02-26T08:06:27;101224.22;;;1.24;100.00
2875;BME280;1445;52.600;13.328;2023-02-26T08:08:53;101238.31;;;1.14;100.00
2875;BME280;1445;52.600;13.328;2023-02-26T08:11:18;101229.34;;;1.14;100.00
2875;BME280;1445;52.600;13.328;2023-02-26T08:13:43;101234.72;;;1.21;100.00
2875;BME280;1445;52.600;13.328;2023-02-26T08:16:09;101239.69;;;1.24;100.00
2875;BME280;1445;52.600;13.328;2023-02-26T08:18:34;101235.13;;;1.36;100.00
2875;BME280;1445;52.600;13.328;2023-02-26T08:21:00;101242.00;;;1.38;100.00
2875;BME280;1445;52.600;13.328;2023-02-26T08:23:25;101245.78;;;1.37;100.00
2875;BME280;1445;52.600;13.328;2023-02-26T08:25:59;101239.78;;;1.47;100.00
2875;BME280;1445;52.600;13.328;2023-02-26T08:28:24;101252.06;;;1.38;100.00
2875;BME280;1445;52.600;13.328;2023-02-26T08:30:52;101248.94;;;1.53;100.00
2875;BME280;1445;52.600;13.328;2023-02-26T08:33:17;101249.78;;;1.65;100.00
2875;BME280;1445;52.600;13.328;2023-02-26T08:35:43;101249.31;;;1.56;100.00
2875;BME280;1445;52.600;13.328;2023-02-26T08:38:09;101250.41;;;1.67;100.00
2875;BME280;1445;52.600;13.328;2023-02-26T08:40:34;101260.91;;;1.63;100.00
2875;BME280;1445;52.600;13.328;2023-02-26T08:42:59;101257.19;;;1.76;100.00
2875;BME280;1445;52.600;13.328;2023-02-26T08:45:25;101260.72;;;1.77;100.00
2875;BME280;1445;52.600;13.328;2023-02-26T08:47:50;101265.38;;;1.88;100.00
2875;BME280;1445;52.600;13.328;2023-02-26T08:50:17;101269.38;;;1.85;100.00
2875;BME280;1445;52.600;13.328;2023-02-26T08:52:42;101280.69;;;2.01;100.00
2875;BME280;1445;52.600;13.328;2023-02-26T08:55:08;101278.44;;;1.98;100.00
2875;BME280;1445;52.600;13.328;2023-02-26T08:57:33;101285.91;;;2.14;100.00
2875;BME280;1445;52.600;13.328;2023-02-26T08:59:59;101289.47;;;2.14;100.00
2875;BME280;1445;52.600;13.328;2023-02-26T09:02:24;101286.16;;;2.24;100.00
2875;BME280;1445;52.600;13.328;2023-02-26T09:04:50;101288.06;;;2.24;100.00
2875;BME280;1445;52.600;13.328;2023-02-26T09:07:15;101278.97;;;2.18;100.00
2875;BME280;1445;52.600;13.328;2023-02-26T09:09:40;101294.22;;;2.31;100.00
2875;BME280;1445;52.600;13.328;2023-02-26T09:12:06;101307.88;;;2.43;100.00
2875;BME280;1445;52.600;13.328;2023-02-26T09:14:31;101303.88;;;2.57;100.00
2875;BME280;1445;52.600;13.328;2023-02-26T09:16:57;101311.44;;;2.67;100.00
2875;BME280;1445;52.600;13.328;2023-02-26T09:19:23;101312.03;;;2.69;100.00
2875;BME280;1445;52.600;13.328;2023-02-26T09:21:48;101319.59;;;2.67;100.00
2875;BME280;1445;52.600;13.328;2023-02-26T09:24:14;101321.53;;;2.78;100.00
2875;BME280;1445;52.600;13.328;2023-02-26T09:26:39;101323.44;;;2.89;100.00
2875;BME280;1445;52.600;13.328;2023-02-26T09:29:04;101327.94;;;2.95;100.00
2875;BME280;1445;52.600;13.328;2023-02-26T09:31:30;101330.31;;;2.92;100.00
2875;BME280;1445;52.600;13.328;2023-02-26T09:33:56;101333.59;;;2.94;100.00
2875;BME280;1445;52.600;13.328;2023-02-26T09:36:22;101345.69;;;2.86;100.00
2875;BME280;1445;52.600;13.328;2023-02-26T09:38:47;101348.28;;;2.81;100.00
2875;BME280;1445;52.600;13.328;2023-02-26T09:41:59;101349.59;;;2.78;100.00
2875;BME280;1445;52.600;13.328;2023-02-26T09:44:20;101357.88;;;3.07;100.00
2875;BME280;1445;52.600;13.328;2023-02-26T09:52:39;101360.25;;;3.15;100.00
2875;BME280;1445;52.600;13.328;2023-02-26T09:55:12;101363.78;;;3.39;100.00
2875;BME280;1445;52.600;13.328;2023-02-26T09:57:44;101365.41;;;3.64;100.00
2875;BME280;1445;52.600;13.328;2023-02-26T10:00:38;101361.13;;;3.79;100.00
2875;BME280;1445;52.600;13.328;2023-02-26T10:06:04;101369.22;;;4.03;100.00
2875;BME280;1445;52.600;13.328;2023-02-26T10:08:41;101371.66;;;3.88;100.00
2875;BME280;1445;52.600;13.328;2023-02-26T10:11:15;101373.81;;;3.74;100.00
2875;BME280;1445;52.600;13.328;2023-02-26T10:13:50;101369.13;;;3.98;100.00
2875;BME280;1445;52.600;13.328;2023-02-26T10:16:21;101379.28;;;4.14;100.00
2875;BME280;1445;52.600;13.328;2023-02-26T10:18:58;101382.09;;;4.48;100.00
2875;BME280;1445;52.600;13.328;2023-02-26T10:24:17;101382.34;;;4.18;100.00
2875;BME280;1445;52.600;13.328;2023-02-26T10:26:54;101389.94;;;4.44;100.00
2875;BME280;1445;52.600;13.328;2023-02-26T10:34:58;101384.06;;;5.54;100.00
2875;BME280;1445;52.600;13.328;2023-02-26T10:37:43;101384.69;;;5.22;100.00
2875;BME280;1445;52.600;13.328;2023-02-26T10:40:13;101401.22;;;5.49;100.00
2875;BME280;1445;52.600;13.328;2023-02-26T10:42:51;101407.31;;;5.73;100.00
2875;BME280;1445;52.600;13.328;2023-02-26T10:50:48;101402.59;;;5.13;100.00
2875;BME280;1445;52.600;13.328;2023-02-26T10:53:14;101411.22;;;5.60;100.00
2875;BME280;1445;52.600;13.328;2023-02-26T10:55:43;101415.03;;;5.98;100.00
2875;BME280;1445;52.600;13.328;2023-02-26T10:58:16;101409.13;;;6.55;100.00
2875;BME280;1445;52.600;13.328;2023-02-26T11:00:48;101401.59;;;6.67;100.00
2875;BME280;1445;52.600;13.328;2023-02-26T11:03:35;101409.75;;;6.62;100.00
2875;BME280;1445;52.600;13.328;2023-02-26T11:06:02;101419.13;;;5.95;100.00
2875;BME280;1445;52.600;13.328;2023-02-26T11:08:41;101417.00;;;5.64;100.00
2875;BME280;1445;52.600;13.328;2023-02-26T11:11:07;101425.78;;;5.83;100.00
2875;BME280;1445;52.600;13.328;2023-02-26T11:13:36;101406.44;;;6.60;100.00
2875;BME280;1445;52.600;13.328;2023-02-26T11:16:12;101418.75;;;6.58;100.00
2875;BME280;1445;52.600;13.328;2023-02-26T11:18:43;101411.44;;;6.68;100.00
2875;BME280;1445;52.600;13.328;2023-02-26T11:21:29;101419.63;;;6.63;100.00
2875;BME280;1445;52.600;13.328;2023-02-26T11:24:03;101427.38;;;7.04;100.00
2875;BME280;1445;52.600;13.328;2023-02-26T11:26:35;101437.50;;;6.71;100.00
2875;BME280;1445;52.600;13.328;2023-02-26T11:29:02;101422.22;;;7.45;100.00
2875;BME280;1445;52.600;13.328;2023-02-26T11:31:28;101432.72;;;8.00;100.00
2875;BME280;1445;52.600;13.328;2023-02-26T11:34:04;101430.06;;;8.31;100.00
2875;BME280;1445;52.600;13.328;2023-02-26T11:36:33;101440.34;;;8.51;100.00
2875;BME280;1445;52.600;13.328;2023-02-26T11:39:07;101443.38;;;7.49;100.00
2875;BME280;1445;52.600;13.328;2023-02-26T11:41:39;101441.00;;;7.63;100.00
2875;BME280;1445;52.600;13.328;2023-02-26T11:44:11;101447.16;;;7.43;100.00
2875;BME280;1445;52.600;13.328;2023-02-26T11:46:42;101455.66;;;6.50;100.00
2875;BME280;1445;52.600;13.328;2023-02-26T11:49:12;101467.88;;;6.20;100.00
2875;BME280;1445;52.600;13.328;2023-02-26T11:51:43;101458.38;;;5.67;100.00
2875;BME280;1445;52.600;13.328;2023-02-26T11:54:23;101465.72;;;6.22;100.00
2875;BME280;1445;52.600;13.328;2023-02-26T11:56:49;101458.34;;;7.31;100.00
2875;BME280;1445;52.600;13.328;2023-02-26T11:59:21;101455.31;;;8.28;100.00
2875;BME280;1445;52.600;13.328;2023-02-26T12:01:47;101451.13;;;8.88;100.00
2875;BME280;1445;52.600;13.328;2023-02-26T12:04:17;101455.59;;;8.26;96.10
2875;BME280;1445;52.600;13.328;2023-02-26T12:06:45;101456.28;;;7.96;100.00
2875;BME280;1445;52.600;13.328;2023-02-26T12:09:12;101458.78;;;7.55;100.00
2875;BME280;1445;52.600;13.328;2023-02-26T12:43:53;101477.22;;;6.03;100.00
2875;BME280;1445;52.600;13.328;2023-02-26T12:46:39;101478.13;;;6.52;100.00
2875;BME280;1445;52.600;13.328;2023-02-26T13:08:18;101511.34;;;4.82;100.00
2875;BME280;1445;52.600;13.328;2023-02-26T13:10:54;101515.22;;;5.15;100.00
2875;BME280;1445;52.600;13.328;2023-02-26T13:21:19;101502.88;;;9.42;61.09
2875;BME280;1445;52.600;13.328;2023-02-26T13:23:56;101504.53;;;9.69;54.83
2875;BME280;1445;52.600;13.328;2023-02-26T13:26:25;101500.88;;;9.99;49.91
2875;BME280;1445;52.600;13.328;2023-02-26T13:28:59;101503.78;;;10.54;47.91
2875;BME280;1445;52.600;13.328;2023-02-26T13:31:51;101491.66;;;12.21;43.90
2875;BME280;1445;52.600;13.328;2023-02-26T13:37:04;101507.75;;;10.82;43.17
2875;BME280;1445;52.600;13.328;2023-02-26T13:39:53;101511.97;;;9.27;44.91
2875;BME280;1445;52.600;13.328;2023-02-26T13:42:31;101525.03;;;8.17;54.53
2875;BME280;1445;52.600;13.328;2023-02-26T13:45:13;101524.13;;;6.99;55.29
2875;BME280;1445;52.600;13.328;2023-02-26T13:48:08;101528.75;;;6.28;68.27
2875;BME280;1445;52.600;13.328;2023-02-26T13:55:52;101523.13;;;6.83;89.54
2875;BME280;1445;52.600;13.328;2023-02-26T14:01:03;101518.75;;;10.17;52.78
2875;BME280;1445;52.600;13.328;2023-02-26T14:09:54;101529.56;;;11.22;39.67
2875;BME280;1445;52.600;13.328;2023-02-26T14:12:03;101531.28;;;11.53;40.05
2875;BME280;1445;52.600;13.328;2023-02-26T14:14:33;101533.34;;;10.92;40.48
2875;BME280;1445;52.600;13.328;2023-02-26T14:19:31;101531.34;;;8.65;46.01
2875;BME280;1445;52.600;13.328;2023-02-26T14:22:01;101540.47;;;7.80;49.07
2875;BME280;1445;52.600;13.328;2023-02-26T14:24:44;101537.28;;;7.29;55.23
2875;BME280;1445;52.600;13.328;2023-02-26T14:34:47;101544.94;;;6.51;81.83
2875;BME280;1445;52.600;13.328;2023-02-26T14:37:18;101552.56;;;6.27;79.17
2875;BME280;1445;52.600;13.328;2023-02-26T14:40:10;101563.56;;;5.77;83.00
2875;BME280;1445;52.600;13.328;2023-02-26T14:42:42;101553.81;;;5.97;96.27
2875;BME280;1445;52.600;13.328;2023-02-26T14:47:40;101565.78;;;6.74;80.87
2875;BME280;1445;52.600;13.328;2023-02-26T14:50:06;101571.06;;;6.37;77.16
2875;BME280;1445;52.600;13.328;2023-02-26T14:59:15;101567.34;;;7.46;57.19
2875;BME280;1445;52.600;13.328;2023-02-26T15:15:46;101569.44;;;13.61;35.96
2875;BME280;1445;52.600;13.328;2023-02-26T15:23:53;101586.00;;;10.00;40.71
2875;BME280;1445;52.600;13.328;2023-02-26T15:26:30;101580.16;;;9.15;43.58
2875;BME280;1445;52.600;13.328;2023-02-26T15:28:57;101583.00;;;8.15;48.11
2875;BME280;1445;52.600;13.328;2023-02-26T15:31:52;101578.84;;;7.43;51.21
2875;BME280;1445;52.600;13.328;2023-02-26T15:34:19;101593.69;;;6.71;57.33
2875;BME280;1445;52.600;13.328;2023-02-26T15:36:47;101589.50;;;6.25;66.18
2875;BME280;1445;52.600;13.328;2023-02-26T15:39:15;101597.91;;;6.01;77.49
2875;BME280;1445;52.600;13.328;2023-02-26T15:41:43;101587.69;;;5.80;85.29
2875;BME280;1445;52.600;13.328;2023-02-26T15:44:13;101593.63;;;5.43;92.45
2875;BME280;1445;52.600;13.328;2023-02-26T15:46:42;101593.06;;;5.41;98.54
2875;BME280;1445;52.600;13.328;2023-02-26T15:49:15;101592.91;;;5.19;98.05
2875;BME280;1445;52.600;13.328;2023-02-26T15:51:43;101594.63;;;5.08;100.00
2875;BME280;1445;52.600;13.328;2023-02-26T15:54:15;101599.31;;;4.96;100.00
2875;BME280;1445;52.600;13.328;2023-02-26T15:56:41;101600.88;;;5.20;100.00
2875;BME280;1445;52.600;13.328;2023-02-26T15:59:11;101598.97;;;5.83;100.00
2875;BME280;1445;52.600;13.328;2023-02-26T16:01:39;101605.50;;;6.33;99.38
2875;BME280;1445;52.600;13.328;2023-02-26T16:04:10;101600.75;;;6.28;93.56
2875;BME280;1445;52.600;13.328;2023-02-26T16:06:39;101605.81;;;5.97;96.65
2875;BME280;1445;52.600;13.328;2023-02-26T16:09:07;101603.53;;;5.78;100.00
2875;BME280;1445;52.600;13.328;2023-02-26T16:11:37;101604.53;;;5.26;100.00
2875;BME280;1445;52.600;13.328;2023-02-26T16:14:05;101605.19;;;4.76;100.00
2875;BME280;1445;52.600;13.328;2023-02-26T16:16:44;101605.47;;;4.63;100.00
2875;BME280;1445;52.600;13.328;2023-02-26T16:19:19;101606.06;;;4.65;100.00
2875;BME280;1445;52.600;13.328;2023-02-26T16:21:47;101602.44;;;4.36;100.00
2875;BME280;1445;52.600;13.328;2023-02-26T16:24:18;101613.69;;;4.27;100.00